Lake Worth, FL (33460)

1:09 PM EDT on September 02, 2015 (GMT -0400)
NOS_NWLON | | Change Station
CLOSE
Current Station
Personal Weather Station
Location: Lake Worth, FL
Elevation: 0 ft
Nearby Weather Stations

Elev 0 ft 26.61 °N, 80.03 °W | Updated 33 minutes ago

Mostly Cloudy
Mostly Cloudy
0.0 °F
Feels Like -10 °F
N
5.0
Wind Variable Wind from SE
Gusts 6.0 mph

Today
High -- | Low -- °F
--% Chance of Precip.
Yesterday
High -- | Low -- °F
Precip. -- in
7:00 AM 7:39 PM
Waning Gibbous, 79% visible
Pressure 30.09 in
Visibility 10.0 miles
Clouds Mostly Cloudy 3300 ft
Mostly Cloudy 4200 ft
Mostly Cloudy 6000 ft
Windchill -10 °F
Dew Point Not available.
Humidity Not available.
Rainfall in
Snow Depth Not available.
UV 8 out of 12
Pollen 4.70 out of 12
Air Quality Not available.
Flu Activity Not available.
METAR KPBI 021653Z 09008KT 10SM BKN033CB BKN042 BKN060 31/23 A3008 RMK AO2 SLP187 CB OHD MOV N CB DSNT S SW NW T03110233 $
Pressure 30.09 in
Visibility 10.0 miles
Clouds Mostly Cloudy 3300 ft
Mostly Cloudy 4200 ft
Mostly Cloudy 6000 ft
Windchill -10 °F
Dew Point Not available.
Humidity Not available.
Rainfall in
Snow Depth Not available.
UV 8 out of 12
Pollen 4.70 out of 12
Air Quality Not available.
Flu Activity Not available.
METAR KPBI 021653Z 09008KT 10SM BKN033CB BKN042 BKN060 31/23 A3008 RMK AO2 SLP187 CB OHD MOV N CB DSNT S SW NW T03110233 $

10-Day Weather Forecast

×

Almanac

Astronomy

Sep. 02, 2015 Rise Set
Actual Time
Civil Twilight
Nautical Twilight
Astronomical Twilight
Moon
Length of Visible Light
Length of Day
Tomorrow will be .
, % of the Moon is Illuminated

Today's Extremes

State Highs State Lows

Community

WunderPhotos

Upload Photos

1,851,785 photos uploaded!

WunderBlogs® & News

Nearby

Air Quality

  Air Quality AQ Index Pollutant
Not available.

Snow Depth

Station Depth Elevation

Earthquake Activity

City Distance Mag. Time & Date
Minimum magnitude displayed is 2.5.

Coastal Water Temperatures

Place Temperature

Stations

Nearby Weather Stations

Station Location Temp. Windchill Dew Point Humidity Wind Precip. Elev Updated Type